Time;durP1;ratioP1;P1;durP2;ratioP2;P2;SDS_P1;SDS_P2;PMS_P1;PMS_P2;Temp;Humidity;BMP_temperature;BMP_pressure;BME280_temperature;BME280_humidity;BME280_pressure;Samples;Min_cycle;Max_cycle;Signal;HPM_P1;HPM_P2
2022/11/07 00:02:21;;;;;;;9.32;6.15;;;18.60;91.90;;;18.74;60.29;98790.22;5033718;28;20674;-79
2022/11/07 00:04:48;;;;;;;9.55;6.28;;;18.60;91.90;;;18.73;60.86;98780.38;5041775;28;20032;-79
2022/11/07 00:07:14;;;;;;;14.55;6.57;;;18.50;91.90;;;18.74;61.26;98790.22;5035512;28;20820;-79
2022/11/07 00:09:40;;;;;;;12.35;7.07;;;18.60;92.10;;;18.72;61.62;98781.50;5036116;28;20041;-79
2022/11/07 00:12:06;;;;;;;9.07;5.85;;;18.60;92.20;;;18.73;60.75;98783.13;5067741;28;20063;-80
2022/11/07 00:14:32;;;;;;;8.52;5.75;;;18.60;91.90;;;18.69;60.61;98782.16;5047685;28;20416;-79
2022/11/07 00:16:58;;;;;;;10.27;6.13;;;18.60;91.90;;;18.71;60.63;98785.41;5033096;28;20045;-79
2022/11/07 00:19:25;;;;;;;8.45;5.78;;;18.60;91.90;;;18.70;60.54;98780.22;5051345;28;20197;-79
2022/11/07 00:21:51;;;;;;;11.48;6.32;;;18.60;91.90;;;18.73;61.09;98774.91;5039292;28;20086;-79
2022/11/07 00:24:17;;;;;;;7.53;5.85;;;18.60;92.00;;;18.72;61.17;98776.00;5056094;28;20047;-79
2022/11/07 00:26:44;;;;;;;9.75;6.43;;;18.60;92.40;;;18.74;61.08;98771.00;5041525;28;20079;-79
2022/11/07 00:29:16;;;;;;;9.98;5.80;;;18.60;92.10;;;18.73;60.65;98760.34;5035439;28;20048;-79
2022/11/07 00:31:42;;;;;;;8.45;5.75;;;18.60;91.90;;;18.70;60.62;98771.97;5038325;28;20119;-79
2022/11/07 00:34:09;;;;;;;15.35;7.20;;;18.60;91.90;;;18.71;60.54;98763.41;5033266;28;20673;-79
2022/11/07 00:36:34;;;;;;;8.65;5.90;;;18.60;91.90;;;18.75;60.59;98771.81;5034395;28;20058;-79
2022/11/07 00:39:01;;;;;;;10.48;6.25;;;18.60;91.90;;;18.73;61.11;98761.16;5052989;28;20047;-79
2022/11/07 00:41:27;;;;;;;11.57;6.18;;;18.60;92.00;;;18.71;61.47;98760.69;5061891;28;20048;-79
2022/11/07 00:43:53;;;;;;;10.82;6.50;;;18.60;92.10;;;18.73;60.83;98763.09;5038601;28;20062;-79
2022/11/07 00:46:19;;;;;;;10.60;6.15;;;18.60;91.90;;;18.71;60.70;98759.88;5058086;28;20075;-79
2022/11/07 00:48:46;;;;;;;9.07;6.00;;;18.60;91.90;;;18.71;60.51;98765.38;5050062;28;20484;-79
2022/11/07 00:51:20;;;;;;;10.05;6.00;;;18.60;91.90;;;18.72;60.68;98762.28;5027920;28;20159;-79
2022/11/07 00:53:48;;;;;;;9.93;5.93;;;18.60;91.90;;;18.71;60.88;98762.63;5054212;28;20093;-79
2022/11/07 00:56:16;;;;;;;12.18;6.38;;;18.60;91.90;;;18.73;61.16;98755.66;5026157;28;20045;-80
2022/11/07 00:58:43;;;;;;;14.95;6.15;;;18.60;91.90;;;18.72;61.22;98756.78;5054562;28;20042;-80
2022/11/07 01:01:18;;;;;;;11.82;6.53;;;18.60;92.10;;;18.69;60.78;98749.19;5041769;28;20044;-79
2022/11/07 01:06:31;;;;;;;12.15;6.35;;;18.60;91.90;;;18.73;60.38;98750.16;5043165;28;20125;-79
2022/11/07 01:08:58;;;;;;;8.40;6.20;;;18.60;91.90;;;18.72;60.70;98745.00;5021737;28;20047;-80
2022/11/07 01:11:25;;;;;;;10.55;6.25;;;18.60;91.90;;;18.73;61.07;98747.41;5034642;28;20041;-79
2022/11/07 01:13:58;;;;;;;10.18;6.13;;;18.60;92.00;;;18.71;61.23;98746.94;5055500;28;20033;-79
2022/11/07 01:16:24;;;;;;;8.85;6.03;;;18.60;92.10;;;18.68;60.99;98741.31;5030188;28;20372;-79
2022/11/07 01:18:50;;;;;;;11.32;6.07;;;18.60;91.90;;;18.70;60.78;98739.00;5032548;28;20040;-80
2022/11/07 01:21:16;;;;;;;9.95;6.32;;;18.60;91.90;;;18.71;60.49;98741.44;5049189;28;20040;-80
2022/11/07 01:23:43;;;;;;;10.95;6.38;;;18.60;91.90;;;18.69;60.64;98743.69;5051198;28;20038;-80
2022/11/07 01:26:10;;;;;;;10.82;6.28;;;18.60;91.90;;;18.73;61.30;98739.19;5039818;28;20059;-80
2022/11/07 01:28:37;;;;;;;12.73;6.45;;;18.60;91.90;;;18.72;61.34;98732.06;5039927;28;20096;-80
2022/11/07 01:31:09;;;;;;;10.05;6.30;;;18.60;91.90;;;18.73;60.97;98735.63;5030769;28;20472;-80
2022/11/07 01:33:36;;;;;;;10.93;6.43;;;18.60;92.00;;;18.69;60.78;98729.97;5037055;28;20396;-80
2022/11/07 01:36:04;;;;;;;11.15;6.65;;;18.60;91.90;;;18.69;60.96;98729.16;5034455;28;20048;-79
2022/11/07 01:38:30;;;;;;;9.13;6.78;;;18.60;91.90;;;18.69;60.77;98737.41;5033644;28;20074;-79
2022/11/07 01:43:51;;;;;;;10.13;6.55;;;18.60;91.90;;;18.69;61.47;98731.91;5047159;28;20092;-80
2022/11/07 01:46:18;;;;;;;10.02;6.05;;;18.60;92.10;;;18.68;61.57;98724.81;5055514;28;20051;-79
2022/11/07 01:48:53;;;;;;;13.23;6.75;;;18.60;92.10;;;18.66;61.13;98717.69;5057799;28;20039;-79
2022/11/07 01:51:19;;;;;;;8.85;7.18;;;18.60;91.90;;;18.64;60.96;98724.66;5049734;28;20164;-80
2022/11/07 01:53:46;;;;;;;9.57;5.88;;;18.60;91.90;;;18.67;60.64;98724.00;5052555;28;20396;-80
2022/11/07 01:56:14;;;;;;;9.73;6.93;;;18.60;91.90;;;18.70;60.50;98723.34;5024502;28;20044;-79
2022/11/07 01:58:41;;;;;;;7.47;5.35;;;18.60;91.90;;;18.73;61.07;98717.19;5038245;28;20454;-79
2022/11/07 02:01:07;;;;;;;9.48;6.20;;;18.60;91.90;;;18.71;61.39;98724.16;5044186;28;20107;-79
2022/11/07 02:03:34;;;;;;;9.60;5.78;;;18.60;92.00;;;18.71;61.30;98719.47;5040667;28;20044;-80
2022/11/07 02:06:04;;;;;;;10.63;6.63;;;18.60;92.00;;;18.67;60.85;98715.75;5036891;28;20061;-80
2022/11/07 02:08:31;;;;;;;8.32;6.13;;;18.60;91.90;;;18.64;61.31;98714.47;5049001;28;20063;-79
2022/11/07 02:10:59;;;;;;;8.85;6.47;;;18.60;91.90;;;18.69;60.55;98713.47;5055742;28;20453;-79
2022/11/07 02:13:27;;;;;;;9.00;5.97;;;18.60;91.90;;;18.71;60.54;98713.16;5032077;28;20037;-80
2022/11/07 02:15:53;;;;;;;9.32;6.15;;;18.60;91.80;;;18.69;61.40;98710.72;5053147;28;20059;-80
2022/11/07 02:18:21;;;;;;;9.93;6.45;;;18.60;91.90;;;18.74;61.43;98701.50;5036893;28;20040;-80
2022/11/07 02:20:47;;;;;;;8.70;5.88;;;18.60;92.00;;;18.70;61.11;98698.63;5021387;28;20091;-80
2022/11/07 02:23:26;;;;;;;11.23;6.78;;;18.60;91.90;;;18.70;60.81;98700.53;5039631;28;20049;-80
2022/11/07 02:25:52;;;;;;;8.00;5.38;;;18.60;91.90;;;18.68;60.85;98708.34;5064268;28;20037;-80
2022/11/07 02:28:18;;;;;;;7.35;4.97;;;18.60;91.90;;;18.71;60.69;98700.22;5053914;28;20080;-80
2022/11/07 02:30:44;;;;;;;8.23;5.45;;;18.60;91.80;;;18.72;60.95;98701.81;5022476;28;20354;-80
2022/11/07 02:33:22;;;;;;;7.85;4.97;;;18.60;91.90;;;18.73;61.50;98697.16;5053511;28;20389;-79
2022/11/07 02:35:49;;;;;;;9.07;5.60;;;18.50;92.00;;;18.71;61.59;98700.22;5037241;28;20373;-80
2022/11/07 02:38:34;;;;;;;7.57;5.70;;;18.60;92.10;;;18.64;61.00;98692.50;5014688;28;20049;-80
2022/11/07 02:41:12;;;;;;;9.60;6.57;;;18.60;91.90;;;18.67;60.98;98685.53;5048120;28;20583;-80
2022/11/07 02:43:41;;;;;;;11.00;6.63;;;18.50;91.90;;;18.66;60.86;98681.97;5040673;28;20040;-80
2022/11/07 02:46:09;;;;;;;7.07;5.40;;;18.60;91.90;;;18.69;61.11;98679.72;5052485;28;20062;-80
2022/11/07 02:48:47;;;;;;;10.43;6.15;;;18.60;91.90;;;18.69;61.38;98682.47;5025339;28;20037;-79
2022/11/07 02:51:13;;;;;;;8.70;6.10;;;18.60;92.10;;;18.74;61.23;98677.56;5027947;28;20210;-80
2022/11/07 02:53:39;;;;;;;6.88;5.15;;;18.60;92.00;;;18.68;60.93;98678.13;5024108;28;20036;-80
2022/11/07 02:56:06;;;;;;;9.82;6.13;;;18.60;91.90;;;18.66;60.98;98679.22;5055882;28;20047;-79
2022/11/07 02:58:33;;;;;;;7.80;5.10;;;18.60;91.90;;;18.70;60.70;98675.81;5029495;28;20044;-79
2022/11/07 03:01:05;;;;;;;8.65;5.63;;;18.60;91.90;;;18.65;60.78;98674.09;5048098;28;20033;-80
2022/11/07 03:03:37;;;;;;;9.98;6.40;;;18.60;91.80;;;18.62;61.75;98666.47;5014400;28;20037;-80
2022/11/07 03:06:08;;;;;;;8.82;6.65;;;18.60;92.00;;;18.62;61.74;98659.06;5044084;28;20032;-80
2022/11/07 03:08:34;;;;;;;9.07;6.25;;;18.60;92.00;;;18.65;61.55;98655.66;5066436;28;20045;-80
2022/11/07 03:11:01;;;;;;;9.88;7.28;;;18.60;92.00;;;18.65;61.07;98657.59;5036484;28;20594;-80
2022/11/07 03:13:27;;;;;;;8.90;6.35;;;18.60;91.90;;;18.69;61.10;98661.28;5027547;28;20045;-80
2022/11/07 03:15:54;;;;;;;7.13;5.38;;;18.60;91.90;;;18.68;60.57;98662.44;5026929;28;20041;-79
2022/11/07 03:18:21;;;;;;;10.15;6.35;;;18.60;91.90;;;18.69;61.02;98664.03;5027227;28;20140;-80
2022/11/07 03:20:47;;;;;;;9.27;6.22;;;18.60;91.90;;;18.67;61.43;98663.53;5016490;28;20037;-79
2022/11/07 03:23:13;;;;;;;9.27;6.47;;;18.60;91.90;;;18.66;61.56;98664.69;5044225;28;20426;-80
2022/11/07 03:25:40;;;;;;;9.55;6.13;;;18.60;91.90;;;18.64;61.23;98664.22;5042733;28;20536;-80
2022/11/07 03:28:06;;;;;;;6.97;5.68;;;18.60;91.90;;;18.68;60.70;98672.63;5023821;28;20349;-79
2022/11/07 03:30:32;;;;;;;11.27;7.18;;;18.50;91.80;;;18.65;60.91;98672.13;5039375;28;20051;-80
2022/11/07 03:32:58;;;;;;;6.13;5.45;;;18.60;91.90;;;18.66;60.75;98672.94;5044298;28;20381;-80
2022/11/07 03:35:24;;;;;;;10.13;6.22;;;18.60;91.80;;;18.67;61.32;98677.28;5052704;28;20082;-80
2022/11/07 03:37:51;;;;;;;7.65;5.63;;;18.60;91.90;;;18.68;61.25;98676.16;5053109;28;20052;-79
2022/11/07 03:40:17;;;;;;;9.75;6.43;;;18.60;91.90;;;18.64;61.69;98676.00;5058404;28;20472;-79
2022/11/07 03:42:44;;;;;;;9.38;6.60;;;18.60;92.00;;;18.65;61.03;98676.84;5055193;28;20492;-80
2022/11/07 03:45:12;;;;;;;8.52;6.47;;;18.60;91.90;;;18.63;61.10;98684.59;5035040;28;20047;-80
2022/11/07 03:47:39;;;;;;;8.88;6.28;;;18.50;91.90;;;18.66;60.78;98668.25;5049780;28;20089;-80
2022/11/07 03:50:08;;;;;;;7.50;5.55;;;18.50;91.80;;;18.62;61.09;98678.31;5049975;28;20055;-79
2022/11/07 03:52:34;;;;;;;6.90;5.60;;;18.60;91.80;;;18.59;60.87;98672.63;5040933;28;20492;-79
2022/11/07 03:55:00;;;;;;;9.88;6.50;;;18.50;91.90;;;18.59;60.16;98672.63;5051831;28;20122;-79
2022/11/07 03:57:26;;;;;;;8.18;5.80;;;18.50;91.60;;;18.57;60.12;98673.00;5035366;28;20109;-80
2022/11/07 03:59:52;;;;;;;9.63;6.72;;;18.50;91.60;;;18.61;59.94;98673.91;5036874;28;20569;-80
2022/11/07 04:02:18;;;;;;;8.90;5.85;;;18.40;91.60;;;18.69;59.85;98679.72;5053584;28;20052;-79
2022/11/07 04:04:44;;;;;;;6.75;5.72;;;18.50;91.60;;;18.67;60.35;98674.53;5068686;28;20051;-80
2022/11/07 04:07:11;;;;;;;9.65;5.97;;;18.60;91.90;;;18.64;60.62;98670.50;5040658;28;20035;-79
2022/11/07 04:09:37;;;;;;;7.50;6.05;;;18.60;92.30;;;18.63;59.75;98668.91;5035845;28;20151;-80
2022/11/07 04:17:34;;;;;;;7.95;5.88;;;18.50;91.50;;;18.65;59.07;98654.84;5026867;28;20048;-80
2022/11/07 04:20:00;;;;;;;7.57;5.97;;;18.50;91.50;;;18.59;60.22;98650.66;5019979;28;20048;-77
2022/11/07 04:22:26;;;;;;;8.25;6.00;;;18.50;91.70;;;18.61;60.35;98657.44;5052616;28;20044;-78
2022/11/07 04:24:52;;;;;;;8.73;6.32;;;18.50;91.80;;;18.60;59.86;98655.03;5040314;28;20399;-78
2022/11/07 04:30:25;;;;;;;10.60;7.03;;;18.40;91.40;;;18.55;59.26;98645.03;5054180;28;20082;-78
2022/11/07 04:32:55;;;;;;;9.18;6.05;;;18.40;91.50;;;18.57;59.04;98648.25;5057468;28;20051;-77
2022/11/07 04:35:24;;;;;;;6.38;5.25;;;18.40;91.40;;;18.58;60.11;98649.06;5057402;28;20044;-77
2022/11/07 04:37:50;;;;;;;8.20;6.20;;;18.40;91.70;;;18.55;60.12;98645.03;5071762;28;20048;-77
2022/11/07 04:40:16;;;;;;;9.75;6.53;;;18.50;91.80;;;18.60;60.15;98639.34;5056595;28;20090;-77
2022/11/07 04:42:43;;;;;;;7.70;5.97;;;18.50;91.70;;;18.54;59.31;98648.09;5059616;28;20102;-77
2022/11/07 04:45:10;;;;;;;9.85;6.20;;;18.50;91.40;;;18.56;58.99;98651.31;5056192;28;20037;-77
2022/11/07 04:47:36;;;;;;;8.45;6.38;;;18.40;91.30;;;18.49;59.17;98646.34;5055621;28;20037;-77
2022/11/07 04:50:04;;;;;;;8.27;6.60;;;18.40;91.30;;;18.62;58.46;98655.50;5041454;28;20047;-77
2022/11/07 04:52:30;;;;;;;10.25;7.38;;;18.40;91.30;;;18.57;59.74;98647.44;5031460;28;20051;-77
2022/11/07 04:54:56;;;;;;;10.35;6.30;;;18.50;91.60;;;18.56;59.99;98643.09;5043682;28;20033;-77
2022/11/07 04:57:22;;;;;;;8.25;6.75;;;18.50;91.60;;;18.57;59.79;98642.78;5052524;28;20040;-77
2022/11/07 04:59:48;;;;;;;7.80;5.68;;;18.50;91.50;;;18.57;58.85;98636.44;5048570;28;20082;-78
2022/11/07 05:02:15;;;;;;;7.75;5.40;;;18.50;91.30;;;18.58;58.53;98632.59;5034883;28;20049;-77
2022/11/07 05:04:41;;;;;;;8.98;6.05;;;18.50;91.30;;;18.56;58.52;98646.63;5046461;28;20044;-78
2022/11/07 05:07:07;;;;;;;9.77;6.78;;;18.40;91.20;;;18.58;58.56;98644.38;5037329;28;20047;-77
2022/11/07 05:09:33;;;;;;;7.18;5.97;;;18.40;91.30;;;18.58;59.74;98644.38;4998902;28;20381;-78
2022/11/07 05:12:01;;;;;;;9.80;5.95;;;18.40;91.60;;;18.60;59.72;98646.81;5026419;28;20106;-78
2022/11/07 05:14:32;;;;;;;7.07;5.25;;;18.50;91.60;;;18.57;58.75;98642.78;5017994;28;20044;-78
2022/11/07 05:16:58;;;;;;;9.37;5.87;;;18.50;91.30;;;18.52;58.95;98651.19;5020944;28;20051;-78
2022/11/07 05:19:24;;;;;;;9.57;6.07;;;18.40;91.60;;;18.58;58.35;98646.31;5036602;28;20037;-77
2022/11/07 05:23:10;;;;;;;8.18;5.28;;;18.40;91.20;;;18.58;58.19;98649.06;5029038;28;20049;-76
2022/11/07 05:24:36;;;;;;;7.45;5.85;;;18.40;91.20;;;18.54;59.41;98654.41;5036880;28;20393;-77
2022/11/07 05:27:03;;;;;;;11.52;6.45;;;18.40;91.50;;;18.55;59.37;98660.72;5035545;28;20041;-77
2022/11/07 05:29:29;;;;;;;10.88;6.57;;;18.40;91.50;;;18.57;59.39;98653.75;5041399;28;20049;-76
2022/11/07 05:31:55;;;;;;;9.30;6.13;;;18.50;91.60;;;18.56;58.57;98662.31;5029023;28;20052;-77
2022/11/07 05:34:21;;;;;;;7.70;5.88;;;18.50;91.20;;;18.59;58.11;98662.44;5035808;28;20116;-77
2022/11/07 05:36:48;;;;;;;8.70;6.68;;;18.50;91.20;;;18.58;57.83;98663.59;5024092;28;20037;-77
2022/11/07 05:39:14;;;;;;;7.60;5.75;;;18.50;91.10;;;18.57;58.00;98662.00;5035503;28;20101;-77
2022/11/07 05:41:40;;;;;;;8.25;5.55;;;18.50;91.10;;;18.56;58.99;98673.31;5028639;28;20059;-77
2022/11/07 05:44:06;;;;;;;9.00;6.15;;;18.50;91.40;;;18.62;58.85;98671.97;5029535;28;20041;-77
2022/11/07 05:46:32;;;;;;;6.75;5.35;;;18.50;91.40;;;18.55;58.21;98667.00;5049708;28;20043;-77
2022/11/07 05:48:58;;;;;;;8.70;5.30;;;18.50;91.20;;;18.56;58.21;98676.84;5018052;28;20357;-77
2022/11/07 05:51:24;;;;;;;6.10;4.90;;;18.50;91.10;;;18.59;58.28;98683.63;5043074;28;20204;-77
2022/11/07 05:53:50;;;;;;;6.68;5.55;;;18.50;91.50;;;18.57;58.41;98683.16;5028970;28;20044;-77
2022/11/07 05:56:17;;;;;;;11.13;6.85;;;18.50;91.20;;;18.58;58.26;98688.31;5044383;28;20041;-77
2022/11/07 05:58:43;;;;;;;8.07;6.32;;;18.50;91.10;;;18.58;58.28;98691.06;5066607;28;20036;-77
2022/11/07 06:01:09;;;;;;;8.38;6.00;;;18.50;91.10;;;18.55;58.30;98686.25;5064410;28;20045;-77
2022/11/07 06:03:35;;;;;;;9.55;5.80;;;18.50;91.10;;;18.54;59.15;98692.06;5037962;28;20036;-77
2022/11/07 06:06:01;;;;;;;8.30;5.38;;;18.50;91.40;;;18.58;59.32;98693.00;5039636;28;20040;-76
2022/11/07 06:08:27;;;;;;;6.70;5.75;;;18.50;91.40;;;18.54;59.21;98687.34;5034073;28;20473;-77
2022/11/07 06:10:54;;;;;;;9.98;5.82;;;18.50;91.40;;;18.57;58.71;98691.38;5044091;28;20037;-76
2022/11/07 06:13:20;;;;;;;7.10;5.47;;;18.50;91.20;;;18.58;58.56;98693.00;5034672;28;20052;-77
2022/11/07 06:15:46;;;;;;;8.15;5.88;;;18.50;91.20;;;18.57;58.48;98691.38;5049273;28;20033;-76
2022/11/07 06:18:19;;;;;;;7.35;5.55;;;18.50;91.20;;;18.62;58.50;98704.94;5044170;28;20041;-76
2022/11/07 06:20:45;;;;;;;7.68;6.03;;;18.60;91.20;;;18.61;59.06;98711.59;5052596;28;20048;-76
2022/11/07 06:23:11;;;;;;;6.72;5.43;;;18.50;91.40;;;18.61;59.16;98715.13;5004914;28;20052;-77
2022/11/07 06:25:38;;;;;;;6.80;4.93;;;18.50;91.50;;;18.62;58.76;98721.41;5022439;28;20036;-77
2022/11/07 06:28:07;;;;;;;6.75;5.03;;;18.50;91.40;;;18.62;58.54;98721.41;5026519;28;20530;-76
2022/11/07 06:30:34;;;;;;;7.75;4.90;;;18.50;91.30;;;18.60;58.77;98718.22;5028616;28;20044;-76
2022/11/07 06:33:01;;;;;;;7.40;5.05;;;18.50;91.30;;;18.65;58.42;98723.53;5030423;28;20041;-77
2022/11/07 06:35:28;;;;;;;8.75;5.85;;;18.50;91.20;;;18.69;58.79;98720.94;5048847;28;20049;-77
2022/11/07 06:37:54;;;;;;;6.13;5.25;;;18.60;91.40;;;18.65;59.28;98726.28;5045865;28;20040;-76
2022/11/07 06:40:20;;;;;;;5.28;4.70;;;18.60;91.40;;;18.64;59.33;98724.66;5024584;28;20040;-77
2022/11/07 06:42:46;;;;;;;6.68;5.50;;;18.60;91.50;;;18.65;58.96;98734.53;5040746;28;20609;-79
2022/11/07 06:45:13;;;;;;;7.05;5.55;;;18.50;91.30;;;18.63;58.84;98739.53;5032930;28;20128;-80
2022/11/07 06:47:39;;;;;;;6.38;5.43;;;18.60;91.40;;;18.65;58.88;98729.03;5031212;28;20055;-79
2022/11/07 06:50:06;;;;;;;6.70;5.30;;;18.60;91.30;;;18.64;58.65;98732.91;5029487;28;20426;-77
2022/11/07 06:52:32;;;;;;;6.82;4.97;;;18.60;91.30;;;18.64;59.47;98736.44;5030365;28;20040;-77
2022/11/07 06:54:58;;;;;;;7.32;5.05;;;18.60;91.50;;;18.70;59.25;98728.03;5033547;28;20032;-77
2022/11/07 06:57:24;;;;;;;6.90;5.15;;;18.60;91.50;;;18.68;59.15;98736.59;5067116;28;20467;-76
2022/11/07 06:59:50;;;;;;;7.07;6.05;;;18.60;91.40;;;18.66;58.52;98736.13;5049620;28;20045;-76
2022/11/07 07:02:16;;;;;;;7.85;4.80;;;18.60;91.40;;;18.68;58.74;98741.31;5013262;28;20045;-76
2022/11/07 07:04:43;;;;;;;6.32;5.30;;;18.60;91.30;;;18.66;58.54;98739.66;5051205;28;20407;-77
2022/11/07 07:07:09;;;;;;;8.45;6.18;;;18.60;91.20;;;18.70;58.69;98739.00;5048631;28;20041;-77
2022/11/07 07:09:35;;;;;;;5.30;4.80;;;18.60;91.20;;;18.75;59.04;98741.56;5060660;28;20044;-77
2022/11/07 07:12:01;;;;;;;12.73;5.93;;;18.60;91.40;;;18.73;59.21;98732.88;5033408;28;20044;-77
2022/11/07 07:14:27;;;;;;;6.70;5.55;;;18.70;91.50;;;18.71;58.71;98740.63;5052738;28;20041;-77
2022/11/07 07:16:53;;;;;;;5.53;4.50;;;18.60;91.30;;;18.71;58.75;98730.44;5056190;28;20089;-77
2022/11/07 07:19:19;;;;;;;8.73;5.47;;;18.60;91.30;;;18.75;58.30;98734.19;5043676;28;20071;-77
2022/11/07 07:21:45;;;;;;;7.13;5.50;;;18.70;91.30;;;18.71;58.61;98732.41;5030851;28;20407;-76
2022/11/07 07:24:11;;;;;;;8.32;5.07;;;18.70;91.20;;;18.76;58.65;98737.75;5036426;28;20480;-77
2022/11/07 07:26:37;;;;;;;11.40;5.90;;;18.70;91.40;;;18.73;59.35;98733.69;5033613;28;20047;-77
2022/11/07 07:29:03;;;;;;;8.50;6.10;;;18.70;91.50;;;18.75;58.98;98731.44;5047871;28;20037;-77
2022/11/07 07:31:30;;;;;;;11.57;6.15;;;18.60;91.40;;;18.73;58.83;98724.63;5047769;28;20048;-77
2022/11/07 07:33:57;;;;;;;7.28;5.80;;;18.60;91.30;;;18.76;58.62;98732.25;5030759;28;20040;-77
2022/11/07 07:36:23;;;;;;;8.20;5.53;;;18.70;91.30;;;18.77;58.27;98731.09;5051907;28;20040;-77
2022/11/07 07:38:49;;;;;;;10.30;5.97;;;18.70;91.30;;;18.78;58.35;98741.78;5043147;28;20047;-76
2022/11/07 07:41:16;;;;;;;11.75;6.85;;;18.70;91.20;;;18.79;59.01;98734.34;5031553;28;20067;-77
2022/11/07 07:43:42;;;;;;;14.73;7.57;;;18.70;91.40;;;18.80;58.78;98739.50;5034747;28;20458;-77
2022/11/07 07:46:13;;;;;;;9.60;5.82;;;18.70;91.40;;;18.77;58.64;98734.66;5027260;28;20048;-77
2022/11/07 07:48:39;;;;;;;11.37;6.77;;;18.70;91.40;;;18.77;58.52;98729.16;5033497;28;20036;-77
2022/11/07 07:51:05;;;;;;;10.05;6.82;;;18.70;91.30;;;18.78;58.37;98730.78;5035732;28;20053;-77
2022/11/07 07:53:31;;;;;;;9.25;6.47;;;18.70;91.20;;;18.79;58.47;98734.34;5029264;28;20507;-76
2022/11/07 07:55:58;;;;;;;15.48;7.80;;;18.70;91.10;;;18.80;58.55;98738.69;5061136;28;20040;-77
2022/11/07 07:58:25;;;;;;;13.65;7.97;;;18.70;91.30;;;18.86;58.60;98740.13;5044345;28;20499;-77
2022/11/07 08:00:57;;;;;;;13.32;8.18;;;18.80;91.40;;;18.87;58.55;98739.78;5032498;28;20045;-77
2022/11/07 08:03:24;;;;;;;12.70;7.20;;;18.80;91.40;;;18.85;58.25;98735.75;5026960;28;20040;-77
2022/11/07 08:05:57;;;;;;;10.65;6.60;;;18.80;91.20;;;18.86;58.34;98734.63;5043681;28;20047;-77
2022/11/07 08:08:24;;;;;;;13.32;6.75;;;18.70;91.20;;;18.90;57.90;98732.00;5030005;28;20083;-77
2022/11/07 08:10:53;;;;;;;12.27;6.25;;;18.80;91.20;;;18.86;57.92;98738.19;5032874;28;20124;-77
2022/11/07 08:13:24;;;;;;;12.48;8.00;;;18.70;91.10;;;18.91;58.37;98736.38;5034414;28;20147;-77
2022/11/07 08:15:50;;;;;;;18.77;8.65;;;18.70;91.30;;;18.93;58.33;98736.84;5028628;28;20533;-77
2022/11/07 08:18:18;;;;;;;12.68;7.82;;;18.80;91.30;;;18.95;58.04;98749.13;5046078;28;20048;-77
2022/11/07 08:20:44;;;;;;;9.55;7.28;;;18.80;91.20;;;18.94;58.00;98746.72;5038689;28;20047;-77
2022/11/07 08:23:11;;;;;;;14.05;7.38;;;18.80;91.20;;;18.91;57.80;98739.94;5053772;28;20133;-77
2022/11/07 08:25:37;;;;;;;15.20;8.65;;;18.80;91.10;;;18.94;57.65;98743.97;5035732;28;20574;-77
2022/11/07 08:28:04;;;;;;;14.30;7.82;;;18.90;91.10;;;18.97;57.68;98741.34;5028358;28;20052;-77
2022/11/07 08:30:30;;;;;;;18.38;9.15;;;18.80;91.20;;;18.99;58.02;98741.03;5034842;28;20483;-77
2022/11/07 08:33:01;;;;;;;14.45;8.52;;;18.90;91.20;;;19.02;57.67;98752.16;5020363;28;20086;-77
2022/11/07 08:35:31;;;;;;;16.13;7.97;;;18.90;91.20;;;19.02;57.63;98745.88;5039710;28;20145;-77
2022/11/07 08:37:58;;;;;;;12.90;7.07;;;18.90;91.10;;;19.01;57.55;98747.00;5035442;28;20291;-77
2022/11/07 08:40:24;;;;;;;16.45;8.23;;;18.90;91.10;;;19.02;57.80;98743.13;5007172;28;20110;-77
2022/11/07 08:42:59;;;;;;;14.80;8.70;;;18.90;91.00;;;19.04;57.33;98741.66;5023183;28;20071;-77
2022/11/07 08:45:25;;;;;;;;;;;19.00;91.00;;;19.08;57.52;98741.78;5065261;28;20086;-77
2022/11/07 08:47:56;;;;;;;15.23;8.20;;;19.00;91.20;;;19.11;57.46;98738.41;5032572;28;19924;-77
2022/11/07 08:50:22;;;;;;;18.27;9.85;;;19.00;91.20;;;19.13;57.42;98727.84;5046587;28;20052;-77
2022/11/07 08:52:48;;;;;;;18.08;8.65;;;19.00;91.10;;;19.10;57.09;98745.00;5046654;28;20044;-77
2022/11/07 08:55:14;;;;;;;14.20;8.55;;;19.00;90.90;;;19.10;57.09;98742.25;5027110;28;20102;-77
2022/11/07 08:57:41;;;;;;;16.73;8.35;;;19.00;90.90;;;19.12;57.02;98748.25;5065192;28;20044;-77
2022/11/07 09:00:09;;;;;;;19.23;8.57;;;19.00;90.90;;;19.14;57.04;98761.66;5047106;28;20043;-77
2022/11/07 09:02:36;;;;;;;19.17;9.02;;;19.00;90.90;;;19.18;57.11;98765.34;5030403;28;20052;-77
2022/11/07 09:05:02;;;;;;;12.73;8.05;;;19.00;91.10;;;19.16;57.19;98765.69;5036641;28;20039;-77
2022/11/07 09:07:31;;;;;;;16.40;9.30;;;19.10;91.00;;;19.18;57.07;98771.66;5042200;28;20041;-77
2022/11/07 09:09:57;;;;;;;13.95;8.52;;;19.10;91.00;;;19.16;57.00;98773.94;5016604;28;20049;-77
2022/11/07 09:12:24;;;;;;;12.82;7.03;;;19.10;91.00;;;19.17;56.96;98774.75;5047488;28;20040;-77
2022/11/07 09:14:50;;;;;;;15.63;8.60;;;19.10;90.90;;;19.19;56.84;98783.47;5044116;28;20063;-77
2022/11/07 09:17:16;;;;;;;16.13;8.93;;;19.10;90.80;;;19.23;56.94;98782.50;5059147;28;20032;-77
2022/11/07 09:19:42;;;;;;;14.07;8.93;;;19.20;91.00;;;19.24;56.75;98786.03;5050388;28;20037;-77
2022/11/07 09:22:08;;;;;;;15.05;9.07;;;19.10;90.90;;;19.25;56.82;98784.88;5046283;28;20123;-77
2022/11/07 09:24:34;;;;;;;15.75;8.98;;;19.10;90.90;;;19.25;56.59;98784.88;5062250;28;20385;-77
2022/11/07 09:27:01;;;;;;;14.65;8.18;;;19.20;90.80;;;19.25;56.30;98780.19;5063440;28;20048;-77
2022/11/07 09:29:27;;;;;;;13.75;9.23;;;19.20;90.70;;;19.26;56.35;98778.28;5064040;28;20055;-77
2022/11/07 09:31:53;;;;;;;14.45;8.40;;;19.20;90.70;;;19.28;56.21;98776.81;5035574;28;20048;-77
2022/11/07 09:34:20;;;;;;;13.27;8.25;;;19.20;90.70;;;19.32;56.29;98776.13;5063603;28;20075;-77
2022/11/07 09:36:46;;;;;;;15.00;7.85;;;19.20;90.80;;;19.32;56.58;98781.63;5041277;28;20094;-77
2022/11/07 09:39:12;;;;;;;19.58;8.88;;;19.30;90.80;;;19.33;56.44;98781.28;5034107;28;20475;-77
2022/11/07 09:41:55;;;;;;;16.20;8.32;;;19.30;90.80;;;19.31;56.11;98778.09;5030482;28;20045;-77
2022/11/07 09:44:29;;;;;;;11.98;7.60;;;19.30;90.70;;;19.35;55.95;98780.97;5065322;28;20538;-77
2022/11/07 09:47:13;;;;;;;17.27;8.98;;;19.30;90.60;;;19.36;55.73;98771.56;5062826;28;20037;-77
2022/11/07 09:49:58;;;;;;;16.77;8.90;;;19.40;90.60;;;19.37;56.00;98768.50;5062410;28;20524;-77
2022/11/07 09:52:39;;;;;;;12.20;8.05;;;19.30;90.60;;;19.36;55.46;98774.31;5065820;28;20052;-77
2022/11/07 09:55:32;;;;;;;12.60;9.37;;;19.30;90.50;;;19.40;55.63;98775.28;5042370;28;20045;-77
2022/11/07 09:58:23;;;;;;;16.40;8.23;;;19.40;90.60;;;19.41;55.37;98774.13;5035455;28;20103;-77
2022/11/07 10:00:49;;;;;;;14.23;8.35;;;19.40;90.50;;;19.40;55.57;98781.56;5044400;28;20042;-77
2022/11/07 10:03:15;;;;;;;21.42;9.05;;;19.40;90.50;;;19.42;55.24;98775.75;5040163;28;20055;-77
2022/11/07 10:06:19;;;;;;;18.55;9.15;;;19.40;90.40;;;19.42;55.43;98773.78;5027485;28;20143;-77
2022/11/07 10:09:03;;;;;;;16.35;7.70;;;19.40;90.50;;;19.40;55.45;98773.31;5066922;28;20467;-77
2022/11/07 10:11:58;;;;;;;16.08;8.40;;;19.40;90.50;;;19.42;55.42;98776.53;5029875;28;20041;-77
2022/11/07 10:15:11;;;;;;;12.93;7.68;;;19.40;90.40;;;19.43;55.35;98771.84;5048364;28;20091;-77
2022/11/07 10:18:01;;;;;;;11.55;6.57;;;19.40;90.30;;;19.43;55.27;98771.84;5067406;28;20123;-77
2022/11/07 10:21:08;;;;;;;12.55;7.53;;;19.50;90.30;;;19.44;55.26;98774.28;5030623;28;20451;-77
2022/11/07 10:23:52;;;;;;;13.77;7.40;;;19.40;90.30;;;19.43;55.02;98771.84;5060007;28;20110;-77
2022/11/07 10:26:19;;;;;;;11.50;7.28;;;19.40;90.30;;;19.43;55.49;98777.34;5066686;28;20059;-77
2022/11/07 10:29:15;;;;;;;15.57;7.88;;;19.50;90.40;;;19.40;55.23;98769.78;5024514;28;20047;-77
2022/11/07 10:31:56;;;;;;;11.45;7.53;;;19.50;90.30;;;19.39;55.26;98773.66;5027792;28;20048;-77
2022/11/07 10:34:33;;;;;;;14.43;7.93;;;19.50;90.30;;;19.40;54.96;98778.03;5029533;28;20036;-77
2022/11/07 10:37:00;;;;;;;15.30;8.60;;;19.50;90.60;;;19.39;55.09;98776.41;5050946;28;20040;-77
2022/11/07 10:39:27;;;;;;;13.13;7.38;;;19.40;90.20;;;19.39;55.36;98779.16;5032399;28;20402;-77